createdAt,value
2018-06-01T00:02:35.346Z,94635.94
2018-06-01T00:17:35.129Z,94623.59
2018-06-01T00:32:37.124Z,94621.86
2018-06-01T00:47:33.948Z,94623.72
2018-06-01T01:02:34.514Z,94626.64
2018-06-01T01:17:34.511Z,94620.52
2018-06-01T01:32:33.941Z,94626.24
2018-06-01T01:47:34.707Z,94630.38
2018-06-01T02:02:35.012Z,94635.69
2018-06-01T02:17:36.687Z,94644.11
2018-06-01T02:32:34.695Z,94659.47
2018-06-01T02:47:35.076Z,94659.00
2018-06-01T03:02:35.589Z,94673.13
2018-06-01T03:17:38.379Z,94674.67
2018-06-01T03:32:35.251Z,94691.42
2018-06-01T03:47:37.360Z,94707.88
2018-06-01T04:02:35.021Z,94708.11
2018-06-01T04:17:36.168Z,94707.92
2018-06-01T04:32:36.920Z,94733.67
2018-06-01T04:47:34.882Z,94740.25
2018-06-01T05:02:34.856Z,94754.07
2018-06-01T05:17:34.843Z,94758.09
2018-06-01T05:32:34.863Z,94769.03
2018-06-01T05:47:35.156Z,94782.16
2018-06-01T06:02:35.498Z,94785.37
2018-06-01T06:17:35.159Z,94794.66
2018-06-01T06:32:35.166Z,94779.11
2018-06-01T06:47:35.463Z,94776.23
2018-06-01T07:02:34.935Z,94778.05
2018-06-01T07:17:37.446Z,94778.06
2018-06-01T07:32:35.488Z,94776.03
2018-06-01T07:47:34.749Z,94769.11
2018-06-01T08:02:34.760Z,94765.73
2018-06-01T08:17:34.763Z,94763.58
2018-06-01T08:32:34.761Z,94757.25
2018-06-01T08:47:35.139Z,94758.40
2018-06-01T09:02:35.079Z,94766.27
2018-06-01T09:17:35.078Z,94752.34
2018-06-01T09:32:35.064Z,94738.23
2018-06-01T09:47:35.361Z,94734.98
2018-06-01T10:02:35.339Z,94728.98
2018-06-01T10:17:35.341Z,94729.81
2018-06-01T10:32:35.407Z,94716.20
2018-06-01T10:47:34.192Z,94700.44
2018-06-01T11:02:34.665Z,94695.05
2018-06-01T11:17:34.701Z,94689.06
2018-06-01T11:32:34.694Z,94677.64
2018-06-01T11:47:36.455Z,94666.90
2018-06-01T12:02:35.040Z,94670.80
2018-06-01T12:17:35.061Z,94651.26
2018-06-01T12:32:34.949Z,94642.26
2018-06-01T12:47:35.301Z,94638.66
2018-06-01T13:02:35.276Z,94621.03
2018-06-01T13:17:35.318Z,94597.14
2018-06-01T13:32:35.329Z,94597.58
2018-06-01T13:47:35.222Z,94593.58
2018-06-01T14:02:34.990Z,94581.59
2018-06-01T14:17:34.664Z,94578.06
2018-06-01T14:32:34.624Z,94578.08
2018-06-01T14:47:36.905Z,94566.28
2018-06-01T15:02:34.963Z,94563.98
2018-06-01T15:17:34.902Z,94565.60
2018-06-01T15:32:34.943Z,94563.66
2018-06-01T15:47:35.251Z,94566.29
2018-06-01T16:02:35.264Z,94563.78
2018-06-01T16:17:35.287Z,94575.06
2018-06-01T16:32:35.358Z,94582.31
2018-06-01T16:47:34.605Z,94589.90
2018-06-01T17:02:34.573Z,94605.89
2018-06-01T17:17:34.616Z,94609.83
2018-06-01T17:32:34.657Z,94612.73
2018-06-01T17:47:35.072Z,94635.06
2018-06-01T18:02:34.931Z,94656.60
2018-06-01T18:17:34.910Z,94652.39
2018-06-01T18:32:36.676Z,94670.27
2018-06-01T18:47:35.252Z,94684.09
2018-06-01T19:02:35.255Z,94695.92
2018-06-01T19:17:35.061Z,94711.06
2018-06-01T19:32:35.028Z,94724.16
2018-06-01T19:47:34.425Z,94725.80
2018-06-01T20:02:36.640Z,94732.70
2018-06-01T20:17:34.455Z,94734.05
2018-06-01T20:32:34.668Z,94743.27
2018-06-01T20:47:34.900Z,94743.06
2018-06-01T21:02:34.996Z,94738.64
2018-06-01T21:17:34.730Z,94760.50
2018-06-01T21:32:34.280Z,94767.73
2018-06-01T21:47:35.065Z,94781.13
2018-06-01T22:02:35.277Z,94783.21
2018-06-01T22:17:35.086Z,94784.85
2018-06-01T22:32:34.025Z,94791.52
2018-06-01T22:47:36.403Z,94780.36
2018-06-01T23:02:36.143Z,94809.05
2018-06-01T23:17:34.372Z,94788.69
2018-06-01T23:32:34.439Z,94768.71
2018-06-01T23:47:37.212Z,94753.88
